Time;durP1;ratioP1;P1;durP2;ratioP2;P2;SDS_P1;SDS_P2;PMS_P1;PMS_P2;Temp;Humidity;BMP_temperature;BMP_pressure;BME280_temperature;BME280_humidity;BME280_pressure;Samples;Min_cycle;Max_cycle;Signal;HPM_P1;HPM_P2
2022/03/20 00:00:03;;;;;;;53.75;19.95;;;;;;;4.53;61.99;99238.81;4989398;28;20030;-55
2022/03/20 00:02:32;;;;;;;60.10;22.45;;;;;;;4.46;62.43;99240.50;4985664;28;20046;-58
2022/03/20 00:04:59;;;;;;;54.80;19.85;;;;;;;4.49;62.93;99230.19;4982639;28;20026;-57
2022/03/20 00:07:24;;;;;;;51.35;20.00;;;;;;;4.45;63.32;99243.97;4987757;28;20038;-57
2022/03/20 00:09:51;;;;;;;51.47;18.95;;;;;;;4.55;63.70;99245.69;4989053;28;20034;-56
2022/03/20 00:12:16;;;;;;;54.05;20.48;;;;;;;4.50;64.57;99238.78;4988796;28;20042;-55
2022/03/20 00:14:41;;;;;;;59.42;21.58;;;;;;;4.48;64.78;99237.94;4986023;28;20038;-57
2022/03/20 00:17:07;;;;;;;54.00;21.10;;;;;;;4.51;64.59;99243.13;4984131;28;20038;-57
2022/03/20 00:19:33;;;;;;;45.40;18.27;;;;;;;4.44;65.73;99237.91;4988784;28;20054;-58
2022/03/20 00:21:59;;;;;;;51.17;20.42;;;;;;;4.51;66.19;99240.53;4987574;28;20047;-62
2022/03/20 00:24:25;;;;;;;49.95;19.42;;;;;;;4.44;66.82;99232.75;4984931;28;20764;-57
2022/03/20 00:26:56;;;;;;;54.00;19.98;;;;;;;4.40;67.25;99233.59;4985495;28;20068;-57
2022/03/20 00:29:25;;;;;;;49.60;19.70;;;;;;;4.57;66.83;99232.78;4987603;28;20091;-58
2022/03/20 00:31:51;;;;;;;50.70;20.27;;;;;;;4.47;68.38;99226.75;4983062;28;20049;-57
2022/03/20 00:34:16;;;;;;;46.78;18.73;;;;;;;4.42;68.93;99242.22;4985535;28;20026;-57
2022/03/20 00:36:41;;;;;;;49.50;19.48;;;;;;;4.54;69.01;99232.78;4986395;28;20049;-57
2022/03/20 00:39:06;;;;;;;55.47;20.70;;;;;;;4.37;70.15;99241.31;4986805;28;20065;-58
2022/03/20 00:41:32;;;;;;;51.65;19.38;;;;;;;4.35;71.94;99245.63;4987785;28;20070;-58
2022/03/20 00:43:59;;;;;;;47.70;17.77;;;;;;;4.35;75.13;99237.03;4987154;28;20034;-58
2022/03/20 00:46:25;;;;;;;52.75;21.20;;;;;;;4.37;72.01;99246.50;4983215;28;20190;-58
2022/03/20 00:48:50;;;;;;;50.03;20.02;;;;;;;4.42;72.80;99239.63;4987307;28;20045;-57
2022/03/20 00:51:16;;;;;;;55.15;20.73;;;;;;;4.34;73.31;99243.91;4987902;28;20096;-57
2022/03/20 00:53:41;;;;;;;59.05;21.20;;;;;;;4.58;74.77;99250.03;4986472;28;20025;-58
2022/03/20 00:56:07;;;;;;;58.20;20.95;;;;;;;4.39;73.76;99243.91;4983645;28;20428;-58
2022/03/20 00:58:33;;;;;;;60.92;21.50;;;;;;;4.43;73.69;99243.94;4988405;28;20026;-57
2022/03/20 01:00:58;;;;;;;63.20;22.58;;;;;;;4.39;75.04;99244.81;4983993;28;20108;-58
2022/03/20 01:03:23;;;;;;;64.25;23.05;;;;;;;4.42;76.19;99244.78;4986253;28;20113;-57
2022/03/20 01:05:49;;;;;;;55.20;19.33;;;;;;;4.17;77.14;99242.97;4986290;28;20197;-57
2022/03/20 01:08:14;;;;;;;57.92;21.85;;;;;;;4.23;77.77;99243.00;4986207;28;20584;-57
2022/03/20 01:10:40;;;;;;;63.00;21.40;;;;;;;4.19;79.31;99243.84;4987092;28;20046;-57
2022/03/20 01:13:05;;;;;;;56.85;20.85;;;;;;;4.20;80.52;99243.00;4988932;28;20538;-58
2022/03/20 01:15:31;;;;;;;62.33;23.38;;;;;;;4.19;80.06;99236.09;4983754;28;20034;-58
2022/03/20 01:17:57;;;;;;;54.38;20.95;;;;;;;4.21;80.48;99224.06;4986391;28;20523;-58
2022/03/20 01:20:23;;;;;;;60.03;23.17;;;;;;;4.17;81.21;99232.63;4986003;28;20041;-58
2022/03/20 01:22:49;;;;;;;54.83;21.50;;;;;;;4.21;82.58;99224.94;4986846;28;20108;-57
2022/03/20 01:25:15;;;;;;;58.85;22.77;;;;;;;4.08;83.05;99227.44;4984493;28;20029;-57
2022/03/20 01:27:42;;;;;;;63.67;23.38;;;;;;;4.15;82.85;99230.03;4988537;28;20026;-58
2022/03/20 01:30:08;;;;;;;52.80;20.45;;;;;;;4.32;83.38;99217.22;4987079;28;20029;-58
2022/03/20 01:32:33;;;;;;;62.25;22.58;;;;;;;4.12;84.23;99218.84;4988257;28;20026;-58
2022/03/20 01:34:59;;;;;;;63.47;22.95;;;;;;;4.10;85.03;99225.72;4988353;28;20029;-57
2022/03/20 01:37:25;;;;;;;58.42;22.38;;;;;;;4.08;87.35;99219.69;4985266;28;20123;-58
2022/03/20 01:39:52;;;;;;;57.80;22.40;;;;;;;4.21;87.21;99224.94;4987810;28;20168;-58
2022/03/20 01:42:17;;;;;;;60.53;23.67;;;;;;;4.07;87.56;99224.00;4986415;28;20053;-57
2022/03/20 01:44:43;;;;;;;65.40;22.83;;;;;;;4.09;90.52;99218.84;4990399;28;20026;-58
2022/03/20 01:47:08;;;;;;;57.85;22.25;;;;;;;3.92;91.37;99214.44;4988757;28;20041;-58
2022/03/20 01:49:34;;;;;;;53.38;22.70;;;;;;;3.90;92.78;99208.41;4990473;28;20652;-58
2022/03/20 01:52:11;;;;;;;61.25;25.70;;;;;;;3.97;91.69;99209.28;4991935;28;20220;-57
2022/03/20 01:54:45;;;;;;;60.40;22.88;;;;;;;3.91;93.69;99204.13;4993050;28;20495;-56
2022/03/20 01:57:14;;;;;;;62.83;22.08;;;;;;;3.96;94.09;99213.59;4991923;28;20135;-56
2022/03/20 01:59:39;;;;;;;57.30;22.63;;;;;;;3.97;94.94;99209.28;4993023;28;20085;-56
2022/03/20 02:02:06;;;;;;;55.20;24.42;;;;;;;3.95;95.69;99211.00;4988127;28;20878;-58
2022/03/20 02:04:34;;;;;;;58.35;22.58;;;;;;;3.93;95.93;99200.69;4991178;28;20026;-55
2022/03/20 02:07:00;;;;;;;60.80;22.58;;;;;;;3.93;97.07;99202.41;4989321;28;20129;-57
2022/03/20 02:09:26;;;;;;;56.78;24.90;;;;;;;3.79;99.43;99194.59;4991180;28;20114;-57
2022/03/20 02:11:51;;;;;;;64.85;28.98;;;;;;;3.73;100.00;99200.59;4987867;28;20142;-57
2022/03/20 02:14:17;;;;;;;60.65;22.92;;;;;;;3.81;100.00;99187.72;4986723;28;20094;-56
2022/03/20 02:16:43;;;;;;;58.72;23.05;;;;;;;3.85;100.00;99192.03;5001809;28;20125;-56
2022/03/20 02:19:08;;;;;;;57.20;22.70;;;;;;;3.98;100.00;99203.28;5009290;28;20819;-57
2022/03/20 02:21:45;;;;;;;62.45;24.35;;;;;;;3.87;100.00;99205.81;5007767;28;20037;-55
2022/03/20 02:24:32;;;;;;;58.92;23.42;;;;;;;3.88;100.00;99194.66;5008050;28;20442;-56
2022/03/20 02:27:18;;;;;;;63.65;26.17;;;;;;;3.75;100.00;99198.88;5008295;28;20773;-56
2022/03/20 02:29:52;;;;;;;63.67;26.85;;;;;;;3.74;100.00;99194.56;5010131;28;20029;-57
2022/03/20 02:32:24;;;;;;;61.65;23.85;;;;;;;3.81;100.00;99203.22;5008758;28;20116;-57
2022/03/20 02:34:50;;;;;;;70.60;24.15;;;;;;;3.85;100.00;99199.78;5011185;28;20446;-56
2022/03/20 02:37:21;;;;;;;50.45;19.63;;;;;;;3.81;100.00;99198.06;5007805;28;20038;-56
2022/03/20 02:39:47;;;;;;;61.50;25.05;;;;;;;3.78;100.00;99200.59;5007032;28;20029;-56
2022/03/20 02:42:14;;;;;;;58.17;24.73;;;;;;;3.90;100.00;99204.97;5010431;28;20140;-57
2022/03/20 02:44:54;;;;;;;61.72;25.02;;;;;;;3.84;100.00;99203.22;5008764;28;20120;-56
2022/03/20 02:47:23;;;;;;;63.92;25.02;;;;;;;3.95;100.00;99209.31;5004671;28;20037;-57
2022/03/20 02:49:58;;;;;;;56.08;22.08;;;;;;;3.59;100.00;99207.38;5008041;28;20025;-57
2022/03/20 02:52:46;;;;;;;59.17;24.60;;;;;;;3.74;100.00;99209.19;5009454;28;20045;-56
2022/03/20 02:55:14;;;;;;;59.38;24.90;;;;;;;3.71;100.00;99211.75;5009972;28;20021;-56
2022/03/20 02:57:39;;;;;;;55.55;23.30;;;;;;;3.73;100.00;99210.03;5008628;28;20113;-57
2022/03/20 03:00:06;;;;;;;55.75;23.80;;;;;;;3.77;100.00;99211.81;5005213;28;20030;-57
2022/03/20 03:02:36;;;;;;;63.47;24.45;;;;;;;3.86;100.00;99212.69;5010354;28;20442;-55
2022/03/20 03:05:02;;;;;;;56.03;24.00;;;;;;;3.68;100.00;99222.94;5006125;28;20470;-57
2022/03/20 03:10:55;;;;;;;68.40;26.52;;;;;;;3.59;100.00;99226.28;5007180;28;20050;-57
2022/03/20 03:13:02;;;;;;;58.85;24.58;;;;;;;3.65;100.00;99226.31;5009877;28;20083;-57
2022/03/20 03:15:27;;;;;;;62.45;26.20;;;;;;;3.59;100.00;99223.72;5008361;28;20033;-58
2022/03/20 03:17:53;;;;;;;67.05;24.45;;;;;;;3.57;100.00;99215.09;5008772;28;20487;-56
2022/03/20 03:20:19;;;;;;;55.78;23.52;;;;;;;3.42;100.00;99218.44;5007993;28;20025;-58
2022/03/20 03:22:44;;;;;;;58.20;25.33;;;;;;;3.34;100.00;99227.81;5008920;28;20030;-57
2022/03/20 03:25:11;;;;;;;61.30;24.92;;;;;;;3.39;100.00;99230.47;5006306;28;20090;-58
2022/03/20 03:27:36;;;;;;;57.50;22.60;;;;;;;3.34;100.00;99233.00;5011789;28;20052;-58
2022/03/20 03:30:03;;;;;;;61.05;23.75;;;;;;;3.39;100.00;99230.47;5008845;28;20072;-57
2022/03/20 03:32:29;;;;;;;59.33;22.77;;;;;;;3.50;100.00;99233.97;5010838;28;20042;-57
2022/03/20 03:37:39;;;;;;;69.38;26.73;;;;;;;3.37;100.00;99238.19;5007765;28;20040;-57
2022/03/20 03:40:07;;;;;;;55.35;21.17;;;;;;;3.41;100.00;99239.06;5007779;28;20052;-56
2022/03/20 03:42:33;;;;;;;67.70;25.23;;;;;;;3.40;100.00;99235.63;5006242;28;20028;-57
2022/03/20 03:44:58;;;;;;;64.30;24.88;;;;;;;3.35;100.00;99246.75;5011867;28;20033;-57
2022/03/20 03:47:25;;;;;;;63.80;25.67;;;;;;;3.39;100.00;99240.78;5005811;28;20150;-57
2022/03/20 03:49:50;;;;;;;68.03;25.52;;;;;;;3.32;100.00;99251.88;5005795;28;20032;-56
2022/03/20 03:52:16;;;;;;;67.63;25.88;;;;;;;3.28;100.00;99251.00;5004890;28;20034;-58
2022/03/20 03:54:42;;;;;;;65.90;29.90;;;;;;;3.32;100.00;99257.03;5007089;28;20117;-56
2022/03/20 03:57:08;;;;;;;67.18;25.13;;;;;;;3.34;100.00;99250.19;5004664;28;20087;-57
2022/03/20 03:59:33;;;;;;;64.35;24.63;;;;;;;3.43;100.00;99247.69;5002571;28;20030;-58
2022/03/20 04:02:00;;;;;;;71.85;30.13;;;;;;;3.25;100.00;99248.38;5004341;28;20139;-57
2022/03/20 04:04:25;;;;;;;65.35;26.75;;;;;;;3.27;100.00;99257.88;5006186;28;20026;-58
2022/03/20 04:06:51;;;;;;;55.95;23.55;;;;;;;3.34;100.00;99260.50;5006042;28;20046;-57
2022/03/20 04:09:16;;;;;;;71.78;25.02;;;;;;;3.15;100.00;99257.75;5007038;28;20112;-57
2022/03/20 04:11:41;;;;;;;66.68;25.95;;;;;;;3.20;100.00;99256.09;5007811;28;20042;-57
2022/03/20 04:14:07;;;;;;;71.18;26.40;;;;;;;3.14;100.00;99256.03;5010272;28;20037;-57
2022/03/20 04:16:33;;;;;;;61.20;24.77;;;;;;;3.18;100.00;99262.06;5002092;28;20122;-57
2022/03/20 04:18:58;;;;;;;70.53;26.65;;;;;;;3.22;100.00;99261.28;5006668;28;20026;-58
2022/03/20 04:21:23;;;;;;;64.40;25.20;;;;;;;3.07;100.00;99255.13;5006103;28;20401;-55
2022/03/20 04:23:49;;;;;;;65.53;27.42;;;;;;;3.13;100.00;99256.88;5011503;28;20029;-57
2022/03/20 04:26:23;;;;;;;63.22;25.45;;;;;;;3.05;100.00;99255.94;5008646;28;20049;-57
2022/03/20 04:28:50;;;;;;;65.68;26.77;;;;;;;3.05;100.00;99255.94;5005920;28;20056;-57
2022/03/20 04:31:16;;;;;;;65.72;24.40;;;;;;;3.03;100.00;99258.53;5007595;28;20037;-57
2022/03/20 04:33:48;;;;;;;70.25;27.27;;;;;;;3.03;100.00;99260.22;5009196;28;20026;-56
2022/03/20 04:36:14;;;;;;;65.32;24.45;;;;;;;3.08;100.00;99259.41;5004926;28;20468;-57
2022/03/20 04:38:39;;;;;;;63.70;27.35;;;;;;;3.09;100.00;99258.56;5007940;28;20504;-57
2022/03/20 04:41:05;;;;;;;60.63;23.13;;;;;;;3.05;100.00;99253.38;5006012;28;20038;-58
2022/03/20 04:43:31;;;;;;;67.82;24.60;;;;;;;2.99;100.00;99259.31;5004924;28;20026;-57
2022/03/20 04:45:56;;;;;;;64.60;27.35;;;;;;;3.11;100.00;99253.44;5006694;28;20108;-57
2022/03/20 04:59:17;;;;;;;62.63;25.08;;;;;;;3.09;100.00;99278.34;5006560;28;20087;-57
2022/03/20 05:01:43;;;;;;;61.83;24.50;;;;;;;2.96;100.00;99273.91;5006068;28;20045;-55
2022/03/20 05:04:08;;;;;;;56.22;20.40;;;;;;;2.84;100.00;99272.91;5006819;28;20562;-58
2022/03/20 05:06:34;;;;;;;62.00;26.15;;;;;;;3.02;100.00;99279.13;4998727;28;20042;-56
2022/03/20 05:14:28;;;;;;;62.95;23.65;;;;;;;2.68;100.00;99289.06;5005911;28;20065;-57
2022/03/20 05:16:53;;;;;;;67.35;26.63;;;;;;;2.67;100.00;99287.34;5008879;28;20634;-56
2022/03/20 05:19:19;;;;;;;70.38;27.60;;;;;;;2.68;100.00;99294.22;4999694;28;20476;-58
2022/03/20 05:21:48;;;;;;;65.30;25.38;;;;;;;2.69;100.00;99288.22;5002447;28;20618;-56
2022/03/20 05:24:13;;;;;;;58.55;24.45;;;;;;;2.78;100.00;99290.91;5005909;28;20057;-55
2022/03/20 05:26:39;;;;;;;64.03;25.27;;;;;;;2.69;100.00;99289.09;5005832;28;20381;-57
2022/03/20 05:29:05;;;;;;;78.85;32.53;;;;;;;2.68;100.00;99295.09;5005453;28;20068;-56
2022/03/20 05:31:31;;;;;;;49.08;19.65;;;;;;;2.79;100.00;99295.19;5006733;28;20057;-56
2022/03/20 05:33:56;;;;;;;71.57;26.08;;;;;;;2.74;100.00;99296.88;5004186;28;20519;-57
2022/03/20 05:36:22;;;;;;;60.80;25.38;;;;;;;2.75;100.00;99301.16;5005969;28;20078;-56
2022/03/20 05:38:47;;;;;;;65.47;26.25;;;;;;;2.94;100.00;99299.69;5006305;28;20063;-57
2022/03/20 05:43:56;;;;;;;63.75;26.05;;;;;;;3.24;100.00;99304.25;5007862;28;20911;-57
2022/03/20 05:46:22;;;;;;;53.45;23.52;;;;;;;3.22;100.00;99311.13;5005800;28;20046;-55
2022/03/20 05:48:47;;;;;;;66.90;25.20;;;;;;;3.55;100.00;99309.69;5005572;28;20121;-55
2022/03/20 05:51:15;;;;;;;64.45;24.15;;;;;;;3.41;100.00;99306.97;5007468;28;20387;-54
2022/03/20 05:53:41;;;;;;;60.58;26.40;;;;;;;3.63;100.00;99310.59;5003984;28;20026;-56
2022/03/20 05:58:50;;;;;;;62.30;25.65;;;;;;;3.86;100.00;99307.34;5007946;28;20107;-55
2022/03/20 06:01:15;;;;;;;65.95;25.50;;;;;;;4.02;100.00;99311.75;5007686;28;20050;-55
2022/03/20 06:03:41;;;;;;;59.00;23.98;;;;;;;4.22;100.00;99311.88;5007513;28;20034;-55
2022/03/20 06:06:10;;;;;;;61.33;24.15;;;;;;;4.26;100.00;99310.16;4999450;28;20125;-56
2022/03/20 06:08:35;;;;;;;53.60;20.40;;;;;;;4.38;100.00;99309.38;5003614;28;20030;-55
2022/03/20 06:11:02;;;;;;;66.72;25.27;;;;;;;4.87;100.00;99319.03;5004989;28;20038;-57
2022/03/20 06:13:28;;;;;;;60.58;24.52;;;;;;;4.72;100.00;99319.84;5006637;28;20029;-58
2022/03/20 06:15:57;;;;;;;55.30;23.45;;;;;;;4.87;100.00;99319.91;5005271;28;20427;-55
2022/03/20 06:18:23;;;;;;;63.22;25.50;;;;;;;5.39;100.00;99324.34;5005800;28;20034;-56
2022/03/20 06:20:49;;;;;;;57.65;24.55;;;;;;;6.06;100.00;99325.22;5007615;28;20045;-57
2022/03/20 06:23:14;;;;;;;55.05;24.17;;;;;;;6.09;93.90;99330.41;5004367;28;20437;-57
2022/03/20 06:25:40;;;;;;;54.78;22.23;;;;;;;6.25;92.85;99324.31;5008544;28;20072;-55
2022/03/20 06:28:05;;;;;;;54.47;24.70;;;;;;;6.61;88.00;99327.66;5006619;28;20036;-57
2022/03/20 06:30:33;;;;;;;50.80;23.15;;;;;;;7.44;82.57;99331.53;5007047;28;20045;-55
2022/03/20 06:32:59;;;;;;;54.35;23.85;;;;;;;7.34;80.02;99330.75;5005282;28;20029;-57
2022/03/20 06:35:24;;;;;;;57.03;22.80;;;;;;;7.07;78.73;99327.44;5009412;28;20021;-55
2022/03/20 06:37:50;;;;;;;58.58;26.98;;;;;;;7.70;77.36;99333.94;5011343;28;20030;-56
2022/03/20 06:40:16;;;;;;;52.00;24.50;;;;;;;7.67;74.01;99324.44;5007539;28;20420;-56
2022/03/20 06:42:42;;;;;;;61.65;25.50;;;;;;;7.85;73.76;99338.16;5016440;28;20180;-55
2022/03/20 06:45:10;;;;;;;57.78;25.15;;;;;;;8.70;68.93;99332.13;5005106;28;20522;-55
2022/03/20 06:47:36;;;;;;;56.83;26.27;;;;;;;7.73;71.64;99328.72;5011473;28;20017;-55
2022/03/20 06:50:03;;;;;;;51.15;24.05;;;;;;;8.84;68.37;99340.59;5007448;28;20395;-57
2022/03/20 06:52:28;;;;;;;53.63;22.63;;;;;;;7.80;69.18;99340.78;5011210;28;20041;-56
2022/03/20 06:55:02;;;;;;;61.03;24.55;;;;;;;9.12;62.67;99337.66;5005536;28;20048;-55
2022/03/20 06:57:28;;;;;;;49.63;23.25;;;;;;;11.25;59.33;99329.50;5005831;28;20039;-55
2022/03/20 06:59:59;;;;;;;50.05;24.20;;;;;;;11.41;56.47;99332.63;5008752;28;20439;-55
2022/03/20 07:02:24;;;;;;;55.25;25.27;;;;;;;10.50;59.22;99334.56;5007005;28;20096;-57
2022/03/20 07:04:51;;;;;;;61.60;26.08;;;;;;;10.97;55.32;99341.44;5003411;28;20600;-57
2022/03/20 07:07:23;;;;;;;51.17;24.83;;;;;;;11.70;52.67;99351.09;5005491;28;20067;-57
2022/03/20 07:09:49;;;;;;;45.65;24.05;;;;;;;12.81;50.21;99342.13;5006597;28;20068;-58
2022/03/20 07:12:14;;;;;;;43.85;24.25;;;;;;;13.25;49.02;99351.31;5008220;28;20065;-57
2022/03/20 07:14:41;;;;;;;50.25;24.02;;;;;;;12.17;48.53;99356.09;5006849;28;20970;-57
2022/03/20 07:17:12;;;;;;;46.53;24.08;;;;;;;11.88;49.94;99351.56;5007498;28;20044;-57
2022/03/20 07:19:38;;;;;;;45.28;24.80;;;;;;;12.33;49.13;99362.63;5005291;28;20132;-58
2022/03/20 07:22:05;;;;;;;46.63;23.83;;;;;;;13.82;46.16;99360.03;5008488;28;20730;-58
2022/03/20 07:24:34;;;;;;;45.30;23.10;;;;;;;14.39;44.38;99365.13;5004624;28;20456;-57
2022/03/20 07:29:44;;;;;;;46.00;24.13;;;;;;;15.75;42.21;99366.22;5006606;28;20072;-56
2022/03/20 07:32:09;;;;;;;46.67;24.02;;;;;;;12.98;46.30;99362.59;5003428;28;20172;-54
2022/03/20 07:34:37;;;;;;;44.08;23.08;;;;;;;14.25;43.61;99374.34;5004994;28;20442;-56
2022/03/20 07:37:03;;;;;;;42.80;23.17;;;;;;;15.92;42.23;99366.41;5001026;28;20037;-55
2022/03/20 07:39:30;;;;;;;42.85;23.83;;;;;;;15.69;40.48;99367.31;5004772;28;20042;-56
2022/03/20 07:41:56;;;;;;;39.08;21.63;;;;;;;15.49;41.25;99362.84;5004869;28;20042;-56
2022/03/20 07:44:23;;;;;;;38.35;21.92;;;;;;;16.51;38.71;99363.97;5001056;28;20040;-57
2022/03/20 07:46:48;;;;;;;35.17;20.20;;;;;;;14.75;41.36;99375.28;4999201;28;20303;-57
2022/03/20 07:49:14;;;;;;;42.15;21.85;;;;;;;16.39;39.12;99373.22;5007326;28;20025;-57
2022/03/20 07:51:42;;;;;;;35.13;20.65;;;;;;;15.93;39.91;99376.00;5005548;28;20103;-56
2022/03/20 07:54:07;;;;;;;34.35;20.33;;;;;;;18.07;37.01;99376.13;5006358;28;20030;-57
2022/03/20 07:56:35;;;;;;;37.13;20.08;;;;;;;18.33;36.75;99371.31;5003606;28;20458;-56
2022/03/20 07:59:01;;;;;;;34.28;19.92;;;;;;;17.26;35.78;99367.63;4999500;28;20107;-57
2022/03/20 08:01:28;;;;;;;36.40;19.40;;;;;;;16.34;36.68;99378.72;4999566;28;20433;-57
2022/03/20 08:03:55;;;;;;;33.17;17.27;;;;;;;16.08;36.41;99381.56;5005693;28;20467;-56
2022/03/20 08:06:21;;;;;;;30.48;16.73;;;;;;;17.46;36.25;99369.34;5003090;28;20033;-57
2022/03/20 08:08:46;;;;;;;35.67;19.63;;;;;;;16.04;35.45;99380.00;5009731;28;20108;-57
2022/03/20 08:11:11;;;;;;;36.75;18.98;;;;;;;16.91;34.79;99373.63;5003068;28;20100;-56
2022/03/20 08:13:37;;;;;;;34.35;17.98;;;;;;;16.74;34.79;99376.97;5005268;28;20483;-56
2022/03/20 08:16:02;;;;;;;31.60;18.05;;;;;;;18.19;33.75;99377.28;5007603;28;20605;-56
2022/03/20 08:18:27;;;;;;;33.60;18.48;;;;;;;18.71;32.61;99381.66;5002153;28;20026;-56
2022/03/20 08:20:53;;;;;;;35.83;19.50;;;;;;;17.70;33.41;99373.47;5003063;28;20038;-56
2022/03/20 08:23:18;;;;;;;29.83;16.95;;;;;;;18.11;32.59;99381.16;5005916;28;20508;-57
2022/03/20 08:25:43;;;;;;;29.48;18.75;;;;;;;16.94;33.55;99372.63;5007452;28;20486;-57
2022/03/20 08:28:11;;;;;;;28.05;16.52;;;;;;;16.42;33.95;99378.38;5007454;28;20121;-56
2022/03/20 08:30:36;;;;;;;32.65;18.13;;;;;;;15.47;35.74;99384.88;4999421;28;20045;-56
2022/03/20 08:33:02;;;;;;;32.28;17.23;;;;;;;16.69;34.43;99373.69;5005380;28;20037;-57
2022/03/20 08:35:28;;;;;;;31.42;17.00;;;;;;;17.80;32.69;99384.41;5008968;28;20037;-56
2022/03/20 08:37:53;;;;;;;31.67;18.15;;;;;;;16.86;33.60;99393.19;5004936;28;20032;-56
2022/03/20 08:40:20;;;;;;;29.65;17.40;;;;;;;17.82;32.92;99381.69;5003031;28;20022;-55
2022/03/20 08:42:48;;;;;;;31.35;15.35;;;;;;;19.20;32.17;99381.72;5005638;28;20060;-57
2022/03/20 08:45:15;;;;;;;29.45;16.67;;;;;;;16.48;33.49;99386.00;5003191;28;20014;-56
2022/03/20 08:47:41;;;;;;;30.00;17.17;;;;;;;18.40;31.76;99383.28;5005288;28;20022;-56
2022/03/20 08:50:07;;;;;;;27.13;15.77;;;;;;;17.99;31.82;99378.25;5000750;28;20113;-56
2022/03/20 08:52:33;;;;;;;32.63;17.55;;;;;;;17.58;32.40;99383.75;5004454;28;20018;-56
2022/03/20 08:54:58;;;;;;;32.35;16.90;;;;;;;18.59;31.71;99391.94;5001800;28;20073;-58
2022/03/20 08:57:28;;;;;;;28.88;16.77;;;;;;;19.03;31.71;99388.75;5004336;28;20038;-57
2022/03/20 08:59:56;;;;;;;32.03;17.80;;;;;;;17.82;31.68;99381.69;5007778;28;20092;-58
2022/03/20 09:02:22;;;;;;;30.17;16.58;;;;;;;18.22;31.22;99385.03;5007855;28;20038;-57
2022/03/20 09:04:47;;;;;;;36.20;18.42;;;;;;;17.13;32.85;99389.31;5004434;28;20099;-58
2022/03/20 09:07:12;;;;;;;26.95;15.23;;;;;;;18.02;32.49;99380.75;5002438;28;20077;-58
2022/03/20 09:09:38;;;;;;;33.10;18.30;;;;;;;15.56;34.26;99380.09;5003093;28;20087;-58
2022/03/20 09:12:04;;;;;;;34.03;18.50;;;;;;;14.65;35.40;99386.13;5000335;28;20806;-57
2022/03/20 09:14:29;;;;;;;31.00;16.67;;;;;;;15.88;34.82;99374.50;5005095;28;20046;-58
2022/03/20 09:19:39;;;;;;;33.55;17.40;;;;;;;17.46;32.51;99386.03;5003583;28;20813;-58
2022/03/20 09:22:06;;;;;;;31.75;18.40;;;;;;;17.31;32.39;99381.47;5002298;28;20038;-57
2022/03/20 09:24:32;;;;;;;33.92;16.55;;;;;;;17.70;33.22;99388.44;5006002;28;20029;-56
2022/03/20 09:27:00;;;;;;;34.00;18.15;;;;;;;16.54;33.70;99390.16;5005690;28;20038;-58
2022/03/20 09:29:26;;;;;;;35.70;18.98;;;;;;;16.51;33.42;99382.41;5000499;28;20467;-58
2022/03/20 09:31:51;;;;;;;32.70;16.85;;;;;;;16.18;34.64;99383.75;4998718;28;20637;-57
2022/03/20 09:34:16;;;;;;;37.15;18.70;;;;;;;17.26;33.13;99388.72;5002528;28;20026;-57
2022/03/20 09:36:42;;;;;;;36.00;17.10;;;;;;;17.78;33.13;99388.91;5002586;28;20049;-56
2022/03/20 09:39:07;;;;;;;32.92;17.73;;;;;;;16.72;34.18;99383.22;4999888;28;20030;-58
2022/03/20 09:41:33;;;;;;;34.05;17.27;;;;;;;17.16;33.77;99383.03;5002810;28;20042;-57
2022/03/20 09:44:03;;;;;;;32.80;16.50;;;;;;;16.26;34.29;99383.44;5006011;28;20033;-57
2022/03/20 09:46:30;;;;;;;31.23;16.80;;;;;;;15.33;35.65;99393.28;5006421;28;20042;-57
2022/03/20 09:48:56;;;;;;;39.03;18.90;;;;;;;14.67;36.23;99393.94;5004141;28;20030;-57
2022/03/20 09:51:21;;;;;;;37.08;17.08;;;;;;;15.84;35.05;99391.31;5005854;28;20041;-56
2022/03/20 09:53:47;;;;;;;36.72;17.70;;;;;;;16.34;34.30;99378.72;5006118;28;20640;-57
2022/03/20 09:56:12;;;;;;;31.40;15.27;;;;;;;15.85;34.51;99386.00;5007888;28;20046;-56
2022/03/20 09:58:38;;;;;;;33.90;18.27;;;;;;;15.98;34.76;99374.06;5001838;28;20025;-58
2022/03/20 10:01:03;;;;;;;37.15;18.02;;;;;;;15.58;35.73;99383.50;5003365;28;20782;-55
2022/03/20 10:03:29;;;;;;;36.10;17.20;;;;;;;15.32;36.80;99375.78;5006593;28;20040;-58
2022/03/20 10:06:17;;;;;;;30.92;15.93;;;;;;;16.26;35.00;99380.78;5006652;28;20104;-58
2022/03/20 10:08:55;;;;;;;33.20;17.85;;;;;;;16.79;34.12;99381.19;5007257;28;20045;-55
2022/03/20 10:11:20;;;;;;;32.25;15.90;;;;;;;16.36;34.32;99389.19;5008414;28;20042;-57
2022/03/20 10:14:04;;;;;;;37.70;18.15;;;;;;;16.29;34.29;99380.69;5005434;28;20059;-55
2022/03/20 10:16:29;;;;;;;37.40;19.48;;;;;;;15.69;35.07;99393.63;5002536;28;20634;-56
2022/03/20 10:18:54;;;;;;;39.53;17.85;;;;;;;16.09;34.46;99399.09;5007782;28;20587;-55
2022/03/20 10:21:20;;;;;;;29.30;16.80;;;;;;;16.06;34.34;99389.53;5009366;28;20045;-57
2022/03/20 10:23:46;;;;;;;35.03;18.33;;;;;;;15.49;34.96;99394.41;5003551;28;20029;-56
2022/03/20 10:26:19;;;;;;;31.45;16.92;;;;;;;16.84;33.35;99377.44;5010033;28;20058;-56
2022/03/20 10:28:48;;;;;;;28.85;16.38;;;;;;;17.59;32.46;99385.44;5000830;28;20025;-56
2022/03/20 10:31:23;;;;;;;32.10;16.45;;;;;;;16.75;33.81;99389.22;5007398;28;20042;-57
2022/03/20 10:34:04;;;;;;;32.67;16.55;;;;;;;15.96;34.48;99391.69;5006980;28;20115;-56
2022/03/20 10:36:29;;;;;;;29.85;17.10;;;;;;;16.08;33.76;99386.84;5008446;28;20056;-56
2022/03/20 10:38:55;;;;;;;33.75;17.00;;;;;;;15.15;35.22;99390.44;5005827;28;20029;-56
2022/03/20 10:41:26;;;;;;;32.20;16.33;;;;;;;15.54;35.46;99383.72;5001776;28;20423;-56
2022/03/20 10:43:54;;;;;;;38.78;19.58;;;;;;;15.91;34.32;99391.00;5005892;28;20026;-56
2022/03/20 10:46:28;;;;;;;33.33;15.95;;;;;;;15.35;35.43;99386.22;5005676;28;20041;-56
2022/03/20 10:49:00;;;;;;;34.20;16.00;;;;;;;14.97;35.20;99381.47;5005976;28;20032;-56
2022/03/20 10:51:41;;;;;;;32.55;16.23;;;;;;;15.60;34.42;99379.06;5007940;28;20713;-55
2022/03/20 10:54:15;;;;;;;35.72;17.38;;;;;;;14.64;35.67;99388.78;5006927;28;20048;-55
2022/03/20 10:56:54;;;;;;;31.20;16.88;;;;;;;15.19;36.05;99384.16;5005280;28;20053;-56
2022/03/20 10:59:20;;;;;;;33.05;17.67;;;;;;;14.98;35.70;99377.06;5006306;28;20092;-56
2022/03/20 11:01:46;;;;;;;28.58;15.35;;;;;;;14.67;36.50;99382.56;5008218;28;20120;-57
2022/03/20 11:04:12;;;;;;;33.60;16.33;;;;;;;15.49;35.38;99370.72;5007723;28;20026;-57
2022/03/20 11:06:44;;;;;;;33.33;16.70;;;;;;;15.10;35.83;99370.50;5008887;28;20041;-56
2022/03/20 11:09:10;;;;;;;33.63;17.23;;;;;;;15.11;36.23;99375.72;5009181;28;20655;-56
2022/03/20 11:11:42;;;;;;;35.35;17.15;;;;;;;15.32;36.46;99365.28;5006009;28;20041;-57
2022/03/20 11:14:09;;;;;;;40.17;15.80;;;;;;;15.26;35.56;99369.00;5002542;28;20025;-57
2022/03/20 11:16:38;;;;;;;33.60;15.75;;;;;;;15.87;35.50;99363.13;5004042;28;20041;-57
2022/03/20 11:19:08;;;;;;;34.95;16.98;;;;;;;14.77;36.30;99368.19;5006813;28;20026;-57
2022/03/20 11:21:36;;;;;;;34.83;16.40;;;;;;;15.81;35.28;99366.00;5007315;28;20038;-57
2022/03/20 11:24:03;;;;;;;31.45;16.42;;;;;;;15.58;35.72;99364.25;5006540;28;20687;-58
2022/03/20 11:26:30;;;;;;;33.38;16.58;;;;;;;15.75;35.84;99364.47;5005547;28;20038;-57
2022/03/20 11:29:01;;;;;;;34.47;17.80;;;;;;;15.35;35.50;99365.19;5007210;28;20038;-56
2022/03/20 11:31:27;;;;;;;32.83;16.10;;;;;;;15.79;35.60;99359.97;5003847;28;20030;-55
2022/03/20 11:33:55;;;;;;;42.38;17.48;;;;;;;15.39;36.01;99357.09;5003522;28;20025;-56
2022/03/20 11:36:21;;;;;;;34.50;17.67;;;;;;;14.50;36.73;99365.63;5004447;28;20607;-57
2022/03/20 11:39:12;;;;;;;34.20;16.63;;;;;;;14.74;37.06;99363.06;5008654;28;20909;-56
2022/03/20 11:41:38;;;;;;;35.28;18.05;;;;;;;14.45;37.25;99357.91;5000899;28;20034;-57
2022/03/20 11:44:20;;;;;;;35.83;16.08;;;;;;;14.38;37.57;99351.16;5004888;28;20033;-55
2022/03/20 11:47:06;;;;;;;30.90;15.75;;;;;;;14.18;38.13;99353.63;5005362;28;20029;-56
2022/03/20 11:49:32;;;;;;;38.28;14.93;;;;;;;13.77;38.40;99355.88;4997390;28;20033;-56
2022/03/20 11:52:03;;;;;;;34.78;16.75;;;;;;;13.36;38.18;99358.00;5003372;28;20041;-56